Time;durP1;ratioP1;P1;durP2;ratioP2;P2;SDS_P1;SDS_P2;PMS_P1;PMS_P2;Temp;Humidity;BMP_temperature;BMP_pressure;BME280_temperature;BME280_humidity;BME280_pressure;Samples;Min_cycle;Max_cycle;Signal;HPM_P1;HPM_P2
2021/12/05 00:22:46;;;;;;;25.53;1.97;;;;;;;6.94;100.00;96462.31;5035802;28;20720;-65
2021/12/05 00:25:19;;;;;;;18.93;2.50;;;;;;;6.91;100.00;96461.00;5068710;28;20657;-64
2021/12/05 00:27:56;;;;;;;44.33;2.97;;;;;;;6.96;100.00;96465.50;5080999;28;20613;-65
2021/12/05 00:30:45;;;;;;;28.63;2.97;;;;;;;6.86;100.00;96465.56;5079656;28;20606;-65
2021/12/05 00:33:30;;;;;;;15.13;2.43;;;;;;;6.83;100.00;96471.41;5080374;28;20606;-65
2021/12/05 01:39:08;;;;;;;11.53;1.80;;;;;;;5.77;100.00;96556.47;5124958;27;20625;-66
2021/12/05 01:45:02;;;;;;;19.47;2.40;;;;;;;5.64;100.00;96565.75;5157809;27;20653;-65
2021/12/05 01:47:56;;;;;;;11.10;3.80;;;;;;;5.59;100.00;96563.09;5157227;27;20608;-66
2021/12/05 02:15:38;;;;;;;38.73;3.30;;;;;;;5.37;100.00;96565.19;5158670;27;20631;-66
2021/12/05 02:32:22;;;;;;;16.50;1.83;;;;;;;5.48;100.00;96574.72;5119663;27;20625;-65
2021/12/05 02:34:57;;;;;;;34.37;2.90;;;;;;;5.43;100.00;96574.72;5148805;27;20639;-67
2021/12/05 02:37:49;;;;;;;14.80;2.10;;;;;;;5.48;100.00;96573.97;5157523;27;21223;-65
2021/12/05 02:40:29;;;;;;;15.07;2.40;;;;;;;5.48;100.00;96580.03;5157869;27;20599;-66
2021/12/05 02:43:03;;;;;;;22.27;3.60;;;;;;;5.42;100.00;96578.44;5155584;27;20603;-65
2021/12/05 02:45:30;;;;;;;30.70;2.47;;;;;;;5.44;100.00;96576.31;5158275;27;20678;-66
2021/12/05 02:47:57;;;;;;;14.33;1.50;;;;;;;5.42;100.00;96581.88;5144912;27;20596;-66
2021/12/05 02:50:27;;;;;;;41.13;3.70;;;;;;;5.43;100.00;96587.97;5142839;27;20607;-66
2021/12/05 02:52:59;;;;;;;18.40;1.87;;;;;;;5.42;100.00;96587.16;5141617;27;20642;-65
2021/12/05 02:55:35;;;;;;;11.93;1.43;;;;;;;5.40;100.00;96586.66;5143915;27;20615;-65
2021/12/05 02:58:04;;;;;;;11.23;2.03;;;;;;;5.42;100.00;96581.88;5142391;27;20704;-65
2021/12/05 03:00:38;;;;;;;65.27;4.63;;;;;;;5.45;100.00;96581.34;5144511;27;20603;-65
2021/12/05 03:03:16;;;;;;;13.63;1.57;;;;;;;5.48;100.00;96579.25;5126801;27;20618;-65
2021/12/05 03:05:44;;;;;;;26.93;2.47;;;;;;;5.44;100.00;96590.38;5154133;27;20643;-64
2021/12/05 03:08:13;;;;;;;11.80;1.50;;;;;;;5.49;100.00;96588.75;5162099;27;20624;-65
2021/12/05 03:10:40;;;;;;;30.27;2.40;;;;;;;5.43;100.00;96586.13;5165466;27;20663;-65
2021/12/05 03:13:07;;;;;;;7.77;1.47;;;;;;;5.46;100.00;96590.09;5165458;27;20598;-65
2021/12/05 03:15:34;;;;;;;15.70;1.93;;;;;;;5.42;100.00;96595.09;5161941;27;20592;-65
2021/12/05 03:18:01;;;;;;;14.00;2.07;;;;;;;5.34;100.00;96586.88;5161771;27;20604;-64
2021/12/05 03:20:27;;;;;;;46.17;3.40;;;;;;;5.25;100.00;96594.56;5164399;27;20615;-66
2021/12/05 03:22:54;;;;;;;17.33;2.90;;;;;;;5.19;100.00;96595.59;5165142;27;20601;-65
2021/12/05 03:25:23;;;;;;;19.53;2.40;;;;;;;5.23;100.00;96612.53;5163200;27;20638;-66
2021/12/05 03:27:50;;;;;;;24.20;1.80;;;;;;;5.24;100.00;96606.19;5161525;27;20625;-66
2021/12/05 03:30:21;;;;;;;12.50;1.30;;;;;;;5.28;100.00;96614.41;5162448;27;20599;-65
2021/12/05 03:32:50;;;;;;;13.63;2.17;;;;;;;5.29;100.00;96611.47;5165246;27;20620;-65
2021/12/05 03:35:17;;;;;;;6.30;1.13;;;;;;;5.28;100.00;96615.22;5163580;27;20628;-65
2021/12/05 03:37:46;;;;;;;7.23;1.23;;;;;;;5.30;100.00;96612.28;5161465;27;20600;-65
2021/12/05 03:40:13;;;;;;;7.37;1.27;;;;;;;5.27;100.00;96613.59;5161701;27;20611;-65
2021/12/05 03:42:41;;;;;;;16.63;1.73;;;;;;;5.29;100.00;96616.78;5164829;27;20600;-65
2021/12/05 03:45:12;;;;;;;27.73;2.30;;;;;;;5.27;100.00;96624.19;5164678;27;21316;-65
2021/12/05 03:47:39;;;;;;;21.97;2.30;;;;;;;5.23;100.00;96631.06;5153386;27;20595;-65
2021/12/05 03:50:08;;;;;;;17.33;1.57;;;;;;;5.19;100.00;96627.34;5161027;27;20595;-64
2021/12/05 03:52:35;;;;;;;24.00;1.77;;;;;;;5.21;100.00;96629.72;5161226;27;20629;-65
2021/12/05 03:55:02;;;;;;;24.07;1.73;;;;;;;5.20;100.00;96636.88;5160975;27;20616;-65
2021/12/05 03:57:28;;;;;;;7.00;1.00;;;;;;;5.20;100.00;96633.44;5163308;27;20642;-65
2021/12/05 03:59:57;;;;;;;47.63;3.10;;;;;;;5.20;100.00;96631.56;5162001;27;20623;-65
2021/12/05 04:02:23;;;;;;;10.30;1.13;;;;;;;5.14;100.00;96637.91;5162718;27;20994;-65
2021/12/05 04:04:50;;;;;;;22.67;2.13;;;;;;;5.10;100.00;96644.00;5164361;27;20627;-65
2021/12/05 04:07:17;;;;;;;11.67;1.67;;;;;;;5.04;100.00;96631.78;5162983;27;20610;-65
2021/12/05 04:09:46;;;;;;;13.23;1.67;;;;;;;5.06;100.00;96640.25;5160905;27;20603;-66
2021/12/05 04:12:15;;;;;;;11.00;1.10;;;;;;;5.13;100.00;96632.88;5161169;27;20615;-65
2021/12/05 04:14:45;;;;;;;12.40;1.30;;;;;;;5.10;100.00;96628.91;5164258;27;20774;-65
2021/12/05 04:17:14;;;;;;;13.33;1.53;;;;;;;5.06;100.00;96629.66;5163672;27;20590;-67
2021/12/05 04:19:41;;;;;;;43.43;2.77;;;;;;;5.00;100.00;96636.00;5160462;27;20615;-65
2021/12/05 04:22:09;;;;;;;8.23;1.03;;;;;;;4.92;100.00;96639.91;5160429;27;20614;-65
2021/12/05 04:24:36;;;;;;;33.97;2.20;;;;;;;4.97;100.00;96639.97;5152190;27;20607;-65
2021/12/05 04:27:04;;;;;;;23.10;2.20;;;;;;;4.97;100.00;96645.25;5160267;27;20595;-65
2021/12/05 04:29:32;;;;;;;19.73;1.50;;;;;;;5.04;100.00;96639.72;5165215;27;20607;-65
2021/12/05 04:31:59;;;;;;;21.60;1.77;;;;;;;5.03;100.00;96644.22;5160101;27;20603;-64
2021/12/05 04:34:27;;;;;;;16.33;1.67;;;;;;;5.06;100.00;96640.25;5162242;27;20619;-66
2021/12/05 04:36:56;;;;;;;28.27;2.07;;;;;;;5.04;100.00;96645.81;5163754;27;21269;-65
2021/12/05 04:39:24;;;;;;;18.57;1.50;;;;;;;5.05;100.00;96636.81;5161828;27;20610;-65
2021/12/05 04:41:52;;;;;;;11.60;1.57;;;;;;;5.11;100.00;96635.78;5160194;27;20625;-65
2021/12/05 04:44:22;;;;;;;18.63;1.60;;;;;;;5.04;100.00;96637.09;5161344;27;20628;-65
2021/12/05 04:46:49;;;;;;;30.20;2.23;;;;;;;5.05;100.00;96630.72;5163481;27;20606;-65
2021/12/05 04:49:17;;;;;;;39.13;2.90;;;;;;;5.07;100.00;96629.44;5162651;27;20675;-65
2021/12/05 04:51:46;;;;;;;13.80;1.33;;;;;;;5.05;100.00;96620.13;5160110;27;20602;-65
2021/12/05 04:54:15;;;;;;;15.33;1.43;;;;;;;5.04;100.00;96618.56;5160422;27;21481;-65
2021/12/05 04:56:44;;;;;;;34.00;2.50;;;;;;;5.01;100.00;96621.72;5163465;27;20638;-65
2021/12/05 04:59:14;;;;;;;22.27;1.87;;;;;;;5.00;100.00;96617.47;5163009;27;20611;-65
2021/12/05 05:01:41;;;;;;;35.57;2.27;;;;;;;5.02;100.00;96618.81;5159772;27;20611;-64
2021/12/05 05:04:18;;;;;;;7.80;1.10;;;;;;;4.97;100.00;96618.00;5159646;27;20584;-65
2021/12/05 05:06:46;;;;;;;19.13;1.70;;;;;;;4.96;100.00;96621.69;5152598;27;20607;-64
2021/12/05 05:09:13;;;;;;;8.20;1.43;;;;;;;5.00;100.00;96634.16;5159714;27;20596;-65
2021/12/05 05:11:41;;;;;;;57.17;3.73;;;;;;;5.03;100.00;96644.22;5163075;27;20603;-64
2021/12/05 05:14:08;;;;;;;15.67;1.43;;;;;;;5.05;100.00;96639.47;5163186;27;20739;-65
2021/12/05 05:16:36;;;;;;;15.93;1.63;;;;;;;5.09;100.00;96656.41;5150990;27;20649;-65
2021/12/05 05:19:03;;;;;;;18.13;1.53;;;;;;;5.10;100.00;96652.72;5159496;27;20614;-66
2021/12/05 05:21:40;;;;;;;52.73;2.97;;;;;;;5.11;100.00;96659.59;5162482;27;20607;-65
2021/12/05 05:27:29;;;;;;;19.90;1.67;;;;;;;5.12;100.00;96655.91;5152368;27;20599;-65
2021/12/05 05:30:23;;;;;;;19.70;1.57;;;;;;;5.10;100.00;96665.16;5157365;27;20615;-65
2021/12/05 05:41:38;;;;;;;10.30;1.37;;;;;;;5.14;100.00;96661.72;5159322;27;20588;-65
2021/12/05 05:44:15;;;;;;;10.17;1.00;;;;;;;5.08;100.00;96657.47;5154503;27;20620;-64
2021/12/05 05:46:56;;;;;;;28.07;2.10;;;;;;;5.10;100.00;96659.84;5151845;27;20607;-65
2021/12/05 05:49:32;;;;;;;35.60;2.37;;;;;;;5.06;100.00;96664.88;5160996;27;20618;-65
2021/12/05 05:52:00;;;;;;;5.90;1.00;;;;;;;5.11;100.00;96662.22;5159882;27;20614;-65
2021/12/05 05:54:27;;;;;;;19.63;1.87;;;;;;;5.10;100.00;96655.38;5160317;27;20605;-65
2021/12/05 05:57:00;;;;;;;9.60;1.07;;;;;;;5.10;100.00;96660.66;5159135;27;20695;-64
2021/12/05 05:59:27;;;;;;;18.90;1.87;;;;;;;5.07;100.00;96661.19;5164106;27;20648;-65
2021/12/05 06:04:41;;;;;;;40.33;2.83;;;;;;;5.11;100.00;96656.94;5132419;27;20611;-65
2021/12/05 06:07:08;;;;;;;25.23;2.23;;;;;;;5.11;100.00;96654.28;5158944;27;20626;-65
2021/12/05 06:09:35;;;;;;;21.87;1.30;;;;;;;5.15;100.00;96658.03;5150624;27;20603;-65
2021/12/05 06:12:03;;;;;;;17.30;1.50;;;;;;;5.14;100.00;96651.13;5158899;27;20613;-66
2021/12/05 06:14:30;;;;;;;84.90;4.87;;;;;;;5.14;100.00;96660.91;5162294;27;20605;-66
2021/12/05 06:16:57;;;;;;;7.00;0.97;;;;;;;5.07;100.00;96661.19;5162732;27;20657;-65
2021/12/05 06:19:23;;;;;;;26.27;2.17;;;;;;;5.09;100.00;96663.56;5160547;27;20616;-65
2021/12/05 06:21:50;;;;;;;15.47;1.13;;;;;;;5.10;100.00;96665.97;5160326;27;20628;-65
2021/12/05 06:24:17;;;;;;;6.60;1.83;;;;;;;5.11;100.00;96670.16;5163907;27;20662;-64
2021/12/05 06:26:43;;;;;;;41.70;2.60;;;;;;;5.12;100.00;96658.53;5166474;27;20613;-65
2021/12/05 06:29:16;;;;;;;23.73;2.07;;;;;;;5.13;100.00;96660.16;5166104;27;20598;-65
2021/12/05 06:31:57;;;;;;;31.07;2.40;;;;;;;5.11;100.00;96662.22;5162825;27;20612;-64
2021/12/05 06:37:27;;;;;;;30.07;2.23;;;;;;;5.34;100.00;96659.16;5165965;27;20646;-64
2021/12/05 06:40:16;;;;;;;24.70;1.63;;;;;;;5.41;100.00;96667.66;5156807;27;20688;-64
2021/12/05 06:48:09;;;;;;;23.23;1.53;;;;;;;4.94;100.00;96677.50;5165889;27;20590;-65
2021/12/05 06:50:36;;;;;;;32.20;2.37;;;;;;;5.00;100.00;96681.78;5153776;27;20626;-64
2021/12/05 06:53:06;;;;;;;12.60;0.90;;;;;;;4.97;100.00;96684.13;5162240;27;20603;-65
2021/12/05 06:55:32;;;;;;;18.73;1.30;;;;;;;5.02;100.00;96684.94;5165347;27;20694;-64
2021/12/05 06:57:59;;;;;;;20.87;1.73;;;;;;;5.06;100.00;96695.81;5163399;27;20612;-65
2021/12/05 07:00:29;;;;;;;15.57;1.50;;;;;;;5.02;100.00;96700.81;5164447;27;20612;-64
2021/12/05 07:02:56;;;;;;;32.70;2.20;;;;;;;4.86;100.00;96718.44;5165717;27;20602;-66
2021/12/05 07:05:42;;;;;;;21.67;1.83;;;;;;;4.89;100.00;96711.84;5163584;27;20610;-64
2021/12/05 07:08:13;;;;;;;16.83;1.63;;;;;;;4.85;100.00;96705.50;5161962;27;20623;-65
2021/12/05 07:10:47;;;;;;;62.40;3.60;;;;;;;4.88;100.00;96712.91;5153894;27;20580;-65
2021/12/05 07:13:49;;;;;;;32.47;2.60;;;;;;;4.92;100.00;96700.75;5162168;27;20610;-66
2021/12/05 07:16:23;;;;;;;15.87;1.73;;;;;;;4.92;100.00;96705.28;5164157;27;20651;-65
2021/12/05 07:19:12;;;;;;;32.20;2.10;;;;;;;4.90;100.00;96713.47;5161732;27;20668;-65
2021/12/05 07:21:45;;;;;;;47.67;2.80;;;;;;;4.73;100.00;96716.28;5153845;27;20607;-65
2021/12/05 07:24:19;;;;;;;38.13;2.90;;;;;;;4.58;100.00;96726.72;5143574;27;20606;-65
2021/12/05 07:27:10;;;;;;;41.60;3.20;;;;;;;4.50;100.00;96736.97;5165089;27;20637;-65
2021/12/05 07:40:40;;;;;;;45.30;2.87;;;;;;;4.79;100.00;96760.22;5153068;27;20609;-65
2021/12/05 07:43:10;;;;;;;34.67;2.50;;;;;;;4.82;100.00;96761.56;5161161;27;20627;-65
2021/12/05 07:45:43;;;;;;;93.40;5.60;;;;;;;4.98;100.00;96757.16;5152934;27;20664;-65
2021/12/05 07:48:14;;;;;;;28.30;2.57;;;;;;;4.81;100.00;96752.00;5161126;27;20604;-65
2021/12/05 07:50:49;;;;;;;85.90;5.13;;;;;;;4.74;100.00;96762.00;5164676;27;20730;-65
2021/12/05 07:53:22;;;;;;;21.37;2.10;;;;;;;4.85;100.00;96761.03;5163597;27;20636;-65
2021/12/05 07:55:52;;;;;;;48.07;3.43;;;;;;;4.75;100.00;96763.63;5160968;27;20603;-65
2021/12/05 07:58:48;;;;;;;39.53;3.87;;;;;;;4.77;100.00;96756.22;5161938;27;20604;-65
2021/12/05 08:15:17;;;;;;;35.40;2.70;;;;;;;3.97;100.00;96756.31;5163971;27;20579;-66
2021/12/05 08:17:51;;;;;;;42.00;3.50;;;;;;;4.02;100.00;96759.81;5153261;27;20718;-64
2021/12/05 08:20:22;;;;;;;33.63;3.37;;;;;;;4.29;100.00;96749.22;5161301;27;20626;-65
2021/12/05 08:22:49;;;;;;;90.50;6.63;;;;;;;4.31;100.00;96742.66;5163950;27;20594;-65
2021/12/05 08:25:16;;;;;;;33.53;3.80;;;;;;;4.34;100.00;96752.72;5163023;27;20602;-65
2021/12/05 08:27:48;;;;;;;29.13;3.07;;;;;;;4.49;100.00;96745.97;5160334;27;20677;-65
2021/12/05 08:30:24;;;;;;;30.27;2.80;;;;;;;4.67;100.00;96750.88;5157962;27;20595;-66
2021/12/05 08:33:09;;;;;;;17.63;2.97;;;;;;;4.94;100.00;96742.84;5163839;27;20613;-65
2021/12/05 08:36:03;;;;;;;26.37;2.93;;;;;;;4.94;100.00;96737.56;5151539;27;20623;-65
2021/12/05 08:44:29;;;;;;;26.50;2.63;;;;;;;5.21;100.00;96733.75;5145979;27;20632;-66
2021/12/05 10:02:34;;;;;;;16.77;3.30;;;;;;;4.05;100.00;96774.38;5155906;27;20623;-65
2021/12/05 10:08:06;;;;;;;41.57;3.50;;;;;;;4.20;100.00;96766.59;5155611;27;20642;-66
2021/12/05 10:10:40;;;;;;;32.90;2.93;;;;;;;4.32;100.00;96754.00;5166294;27;20998;-65
2021/12/05 10:13:16;;;;;;;14.60;2.50;;;;;;;4.38;100.00;96749.56;5166528;27;20599;-68
2021/12/05 10:15:57;;;;;;;43.43;3.13;;;;;;;4.61;100.00;96751.88;5155607;27;20644;-66
2021/12/05 10:27:24;;;;;;;35.87;3.00;;;;;;;4.68;100.00;96741.88;5156504;27;21101;-65
2021/12/05 10:35:55;;;;;;;36.37;3.70;;;;;;;4.51;100.00;96742.03;5164617;27;20623;-65
2021/12/05 10:38:26;;;;;;;23.50;2.70;;;;;;;4.74;100.00;96722.34;5164427;27;20605;-65
2021/12/05 10:41:01;;;;;;;42.37;3.70;;;;;;;4.89;100.00;96730.38;5162449;27;20592;-66
2021/12/05 10:43:30;;;;;;;38.47;3.67;;;;;;;4.72;100.00;96730.53;5164936;27;20594;-65
2021/12/05 10:46:03;;;;;;;24.03;2.73;;;;;;;4.68;100.00;96729.44;5166166;27;20606;-64
2021/12/05 10:48:33;;;;;;;14.57;2.07;;;;;;;4.85;100.00;96732.75;5162898;27;20642;-65
2021/12/05 10:51:03;;;;;;;38.17;3.23;;;;;;;4.94;100.00;96735.72;5162261;27;20595;-65
2021/12/05 10:53:37;;;;;;;54.33;4.70;;;;;;;4.71;100.00;96747.44;5164801;27;20611;-65
2021/12/05 10:56:18;;;;;;;51.77;3.77;;;;;;;4.52;100.00;96753.41;5165594;27;20598;-65
2021/12/05 10:58:49;;;;;;;42.37;4.30;;;;;;;4.52;100.00;96756.81;5155998;27;20610;-65
2021/12/05 11:01:21;;;;;;;60.03;5.80;;;;;;;4.26;100.00;96747.91;5164560;27;20602;-66
2021/12/05 11:03:51;;;;;;;32.80;2.70;;;;;;;4.26;100.00;96744.44;5162035;27;20611;-65
2021/12/05 11:06:35;;;;;;;31.83;3.40;;;;;;;4.25;100.00;96730.44;5162820;27;20657;-66
2021/12/05 11:09:06;;;;;;;24.93;2.80;;;;;;;4.31;100.00;96728.63;5163249;27;20610;-65
2021/12/05 11:11:35;;;;;;;37.37;3.77;;;;;;;4.28;100.00;96726.50;5162094;27;20602;-65
2021/12/05 11:14:03;;;;;;;46.00;4.40;;;;;;;4.32;100.00;96730.22;5143310;27;20606;-65
2021/12/05 11:16:39;;;;;;;18.33;2.80;;;;;;;4.44;100.00;96730.06;5164580;27;20607;-66
2021/12/05 11:19:13;;;;;;;9.00;2.97;;;;;;;4.62;100.00;96729.66;5165031;27;20666;-65
2021/12/05 11:21:46;;;;;;;41.10;4.70;;;;;;;4.41;100.00;96730.56;5154004;27;20614;-65
2021/12/05 11:24:16;;;;;;;22.40;3.57;;;;;;;4.64;100.00;96725.72;5162064;27;20604;-66
2021/12/05 11:26:46;;;;;;;68.00;7.23;;;;;;;4.89;100.00;96730.38;5165070;27;20634;-65
2021/12/05 11:29:13;;;;;;;30.23;5.10;;;;;;;4.85;100.00;96737.25;5164621;27;20622;-65
2021/12/05 11:31:40;;;;;;;69.03;6.43;;;;;;;4.90;100.00;96738.06;5161403;27;20626;-65
2021/12/05 11:34:07;;;;;;;84.30;7.47;;;;;;;4.71;100.00;96742.16;5160948;27;20599;-65
2021/12/05 11:36:38;;;;;;;32.30;3.97;;;;;;;4.58;100.00;96741.81;5164523;27;20591;-65
2021/12/05 11:39:22;;;;;;;44.70;5.40;;;;;;;4.65;100.00;96750.31;5164699;27;20606;-66
2021/12/05 11:41:49;;;;;;;26.87;3.30;;;;;;;4.61;100.00;96762.47;5154602;27;20595;-65
2021/12/05 11:44:19;;;;;;;49.13;5.23;;;;;;;4.63;100.00;96750.56;5161641;27;20663;-65
2021/12/05 11:46:45;;;;;;;32.83;3.87;;;;;;;4.53;100.00;96752.34;5164713;27;20632;-66
2021/12/05 11:49:17;;;;;;;33.50;3.83;;;;;;;4.24;100.00;96757.13;5164202;27;21045;-64
2021/12/05 11:51:48;;;;;;;47.63;4.67;;;;;;;4.20;100.00;96746.25;5160819;27;20664;-65
2021/12/05 11:54:18;;;;;;;19.23;3.13;;;;;;;4.06;100.00;96747.69;5143058;27;20641;-64
2021/12/05 11:56:49;;;;;;;60.80;6.40;;;;;;;4.08;100.00;96745.63;5164575;27;20602;-64
2021/12/05 11:59:20;;;;;;;24.50;4.77;;;;;;;4.10;100.00;96751.44;5163466;27;20595;-64
2021/12/05 12:01:54;;;;;;;57.57;5.37;;;;;;;4.12;100.00;96753.81;5160703;27;20599;-64
2021/12/05 12:04:24;;;;;;;27.93;4.57;;;;;;;4.17;100.00;96749.41;5162153;27;20587;-65
2021/12/05 12:07:10;;;;;;;43.20;5.23;;;;;;;4.18;100.00;96753.63;5164024;27;20606;-64
2021/12/05 12:09:37;;;;;;;89.10;8.10;;;;;;;4.22;100.00;96748.63;5152203;27;20588;-64
2021/12/05 12:12:05;;;;;;;55.87;5.20;;;;;;;4.48;100.00;96762.88;5160478;27;20599;-65
2021/12/05 12:14:31;;;;;;;27.07;4.00;;;;;;;4.48;100.00;96758.38;5163443;27;20640;-66
2021/12/05 12:16:59;;;;;;;28.07;3.60;;;;;;;4.59;100.00;96757.41;5164035;27;20607;-65
2021/12/05 12:19:26;;;;;;;18.50;3.43;;;;;;;4.50;100.00;96763.41;5142819;27;20602;-64
2021/12/05 12:21:57;;;;;;;62.33;5.67;;;;;;;4.28;100.00;96759.00;5160556;27;20611;-66
2021/12/05 12:24:26;;;;;;;48.90;5.17;;;;;;;4.17;100.00;96767.91;5162165;27;20607;-65
2021/12/05 12:26:54;;;;;;;42.03;3.43;;;;;;;4.04;100.00;96760.38;5163848;27;20603;-65
2021/12/05 12:29:24;;;;;;;14.80;1.70;;;;;;;3.99;100.00;96765.56;5162329;27;20607;-65
2021/12/05 12:31:53;;;;;;;32.43;2.93;;;;;;;4.00;100.00;96769.81;5160428;27;20635;-64
2021/12/05 12:34:24;;;;;;;52.53;5.03;;;;;;;4.05;100.00;96767.25;5161239;27;20637;-65
2021/12/05 12:36:52;;;;;;;19.67;3.00;;;;;;;4.17;100.00;96772.38;5163784;27;21014;-66
2021/12/05 12:39:33;;;;;;;25.83;3.27;;;;;;;3.97;100.00;96767.69;5162500;27;20590;-65
2021/12/05 12:42:15;;;;;;;28.40;3.83;;;;;;;4.04;100.00;96768.28;5159906;27;20604;-65
2021/12/05 12:45:01;;;;;;;48.63;3.90;;;;;;;4.17;100.00;96764.44;5152478;27;20600;-65
2021/12/05 12:47:37;;;;;;;22.10;3.27;;;;;;;4.18;100.00;96768.66;5162179;27;20674;-65
2021/12/05 12:50:24;;;;;;;33.03;3.30;;;;;;;4.22;100.00;96765.28;5163333;27;20582;-64
2021/12/05 12:53:00;;;;;;;74.10;5.60;;;;;;;4.17;100.00;96767.91;5153251;27;20607;-65
2021/12/05 12:55:31;;;;;;;43.47;4.23;;;;;;;4.21;100.00;96768.16;5162000;27;20596;-65
2021/12/05 12:57:57;;;;;;;30.03;4.10;;;;;;;4.24;100.00;96765.81;5161270;27;20671;-65
2021/12/05 13:00:27;;;;;;;22.43;3.60;;;;;;;4.24;100.00;96773.75;5161402;27;20688;-65
2021/12/05 13:02:59;;;;;;;23.63;3.33;;;;;;;4.21;100.00;96761.03;5163338;27;20621;-65
2021/12/05 13:05:55;;;;;;;55.00;5.53;;;;;;;4.20;100.00;96762.09;5160935;27;20608;-65
2021/12/05 13:11:12;;;;;;;24.73;2.87;;;;;;;4.29;100.00;96757.16;5163266;27;20590;-66
2021/12/05 13:13:43;;;;;;;27.57;3.33;;;;;;;4.18;100.00;96764.19;5151460;27;20632;-65
2021/12/05 13:16:13;;;;;;;32.97;3.73;;;;;;;4.23;100.00;96766.91;5159486;27;20592;-65
2021/12/05 13:18:41;;;;;;;51.17;4.43;;;;;;;4.39;100.00;96761.75;5151682;27;21170;-65
2021/12/05 13:21:10;;;;;;;34.90;4.20;;;;;;;4.47;100.00;96766.56;5159608;27;20625;-66
2021/12/05 13:23:43;;;;;;;51.87;5.20;;;;;;;4.47;100.00;96766.56;5151198;27;20591;-66
2021/12/05 13:26:25;;;;;;;32.40;4.20;;;;;;;4.54;100.00;96770.59;5159389;27;21199;-65
2021/12/05 13:28:56;;;;;;;24.97;3.57;;;;;;;4.62;100.00;96771.97;5136960;27;20675;-66
2021/12/05 13:31:51;;;;;;;32.13;3.57;;;;;;;4.50;100.00;96771.34;5161127;27;20618;-65
2021/12/05 13:34:28;;;;;;;25.43;3.47;;;;;;;4.56;100.00;96770.34;5153471;27;20603;-66
2021/12/05 13:36:59;;;;;;;46.87;5.03;;;;;;;4.44;100.00;96772.34;5144866;27;20615;-65
2021/12/05 13:39:40;;;;;;;34.63;4.43;;;;;;;4.51;100.00;96770.31;5161515;27;20600;-66
2021/12/05 13:42:13;;;;;;;18.57;3.67;;;;;;;4.58;100.00;96774.31;5162890;27;20600;-66
2021/12/05 13:45:16;;;;;;;37.97;3.80;;;;;;;4.75;100.00;96779.47;5151414;27;20592;-66
2021/12/05 13:47:48;;;;;;;35.30;3.93;;;;;;;4.73;100.00;96781.59;5151590;27;20651;-65
2021/12/05 13:50:34;;;;;;;24.17;3.30;;;;;;;4.79;100.00;96781.38;5141431;27;20599;-65
2021/12/05 13:53:18;;;;;;;16.70;3.03;;;;;;;4.69;100.00;96781.28;5162851;27;20602;-65
2021/12/05 13:55:49;;;;;;;20.17;3.23;;;;;;;4.62;100.00;96791.28;5128987;28;20623;-65
2021/12/05 13:58:24;;;;;;;28.77;3.40;;;;;;;4.52;100.00;96780.59;5156604;27;20608;-66
2021/12/05 14:00:57;;;;;;;18.90;2.50;;;;;;;4.61;100.00;96788.91;5162743;27;20605;-65
2021/12/05 14:03:48;;;;;;;42.10;4.33;;;;;;;4.73;100.00;96786.88;5160692;27;20622;-65
2021/12/05 14:06:34;;;;;;;18.93;4.17;;;;;;;4.80;100.00;96785.59;5159311;27;20668;-65
2021/12/05 14:09:09;;;;;;;35.83;4.00;;;;;;;4.79;100.00;96785.88;5162462;27;20663;-64
2021/12/05 14:11:37;;;;;;;35.07;3.67;;;;;;;4.86;100.00;96787.22;5159072;27;20618;-65
2021/12/05 14:14:07;;;;;;;61.50;5.30;;;;;;;4.91;100.00;96794.41;5159020;27;20636;-66
2021/12/05 14:16:36;;;;;;;38.13;4.43;;;;;;;4.89;100.00;96786.72;5162318;27;20614;-65
2021/12/05 14:19:06;;;;;;;36.57;3.97;;;;;;;4.81;100.00;96789.84;5162507;27;20598;-66
2021/12/05 14:21:34;;;;;;;34.97;4.50;;;;;;;4.67;100.00;96795.81;5159448;27;20661;-64
2021/12/05 14:24:02;;;;;;;21.30;4.20;;;;;;;4.60;100.00;96790.75;5140665;28;20715;-65
2021/12/05 14:26:32;;;;;;;29.70;4.23;;;;;;;4.55;100.00;96800.47;5161631;27;20623;-65
2021/12/05 14:29:02;;;;;;;37.90;5.00;;;;;;;4.41;100.00;96799.28;5162383;27;20680;-65
2021/12/05 14:31:33;;;;;;;40.23;6.10;;;;;;;4.33;100.00;96803.97;5159715;27;21269;-68
2021/12/05 14:34:00;;;;;;;34.93;5.10;;;;;;;4.26;100.00;96805.22;5158887;27;20626;-66
2021/12/05 14:36:30;;;;;;;53.77;7.03;;;;;;;4.18;100.00;96817.03;5160923;27;20622;-65
2021/12/05 14:39:11;;;;;;;46.40;5.73;;;;;;;4.16;100.00;96803.28;5162327;27;20600;-65
2021/12/05 14:41:40;;;;;;;42.27;5.67;;;;;;;4.23;100.00;96806.53;5150442;27;20607;-65
2021/12/05 14:44:07;;;;;;;23.13;4.50;;;;;;;4.21;100.00;96805.97;5161986;27;20638;-65
2021/12/05 14:46:45;;;;;;;52.57;6.90;;;;;;;4.16;100.00;96810.41;5165559;27;20612;-65
2021/12/05 14:49:11;;;;;;;32.20;5.97;;;;;;;4.10;100.00;96814.03;5165742;27;20637;-65
2021/12/05 14:51:40;;;;;;;20.43;4.30;;;;;;;3.95;100.00;96812.03;5162423;27;20597;-65
2021/12/05 14:54:08;;;;;;;45.40;6.50;;;;;;;4.03;100.00;96814.22;5162075;27;20629;-64
2021/12/05 14:56:37;;;;;;;31.93;6.30;;;;;;;4.01;100.00;96818.97;5165504;27;20604;-65
2021/12/05 14:59:07;;;;;;;49.47;6.07;;;;;;;4.15;100.00;96825.44;5165541;27;20595;-65
2021/12/05 15:01:37;;;;;;;43.73;7.23;;;;;;;4.18;100.00;96838.16;5162479;27;20618;-64
2021/12/05 15:04:06;;;;;;;40.20;6.00;;;;;;;4.27;100.00;96826.09;5162165;27;20636;-65
2021/12/05 15:06:37;;;;;;;14.57;5.43;;;;;;;4.38;100.00;96834.13;5165142;27;20599;-64
2021/12/05 15:09:06;;;;;;;25.50;5.73;;;;;;;4.47;100.00;96836.09;5165718;27;20654;-66
2021/12/05 15:11:33;;;;;;;44.47;7.87;;;;;;;4.51;100.00;96831.09;5162659;27;20602;-64
2021/12/05 15:14:06;;;;;;;42.03;7.10;;;;;;;4.58;100.00;96831.72;5161825;27;20629;-64
2021/12/05 15:16:34;;;;;;;43.63;6.90;;;;;;;4.49;100.00;96836.63;5165051;27;20641;-65
2021/12/05 15:19:01;;;;;;;56.47;8.33;;;;;;;4.32;100.00;96843.88;5165446;27;20627;-64
2021/12/05 15:21:30;;;;;;;55.93;8.23;;;;;;;4.27;100.00;96841.97;5162878;27;20602;-64
2021/12/05 15:23:57;;;;;;;53.33;8.10;;;;;;;4.38;100.00;96850.81;5161777;27;20600;-65
2021/12/05 15:26:32;;;;;;;28.30;7.83;;;;;;;4.29;100.00;96844.38;5163330;27;21263;-65
2021/12/05 15:29:03;;;;;;;36.77;7.33;;;;;;;4.33;100.00;96846.25;5165126;27;20660;-65
2021/12/05 15:31:37;;;;;;;28.43;7.13;;;;;;;4.39;100.00;96846.31;5162436;27;20623;-64
2021/12/05 15:34:19;;;;;;;37.67;7.80;;;;;;;4.43;100.00;96850.03;5161332;27;20591;-64
2021/12/05 15:36:46;;;;;;;84.80;9.77;;;;;;;4.49;100.00;96851.72;5149769;27;20869;-64
2021/12/05 15:39:19;;;;;;;50.80;9.00;;;;;;;4.57;100.00;96845.97;5158174;27;20629;-64
2021/12/05 15:41:46;;;;;;;63.73;9.63;;;;;;;4.62;100.00;96852.09;5164970;27;20602;-64
2021/12/05 15:44:24;;;;;;;65.23;10.77;;;;;;;4.67;100.00;96846.06;5146067;27;20621;-64
2021/12/05 15:47:00;;;;;;;33.50;8.50;;;;;;;4.70;100.00;96846.38;5161356;27;20595;-65
2021/12/05 15:49:28;;;;;;;36.83;9.37;;;;;;;4.76;100.00;96857.78;5163341;27;20647;-65
2021/12/05 15:52:01;;;;;;;39.87;7.87;;;;;;;4.63;100.00;96853.69;5164810;27;20605;-64
2021/12/05 15:54:27;;;;;;;60.93;9.60;;;;;;;4.50;100.00;96850.66;5162417;27;20599;-65
2021/12/05 15:57:10;;;;;;;23.13;7.10;;;;;;;4.56;100.00;96860.22;5161128;27;20604;-65
2021/12/05 15:59:40;;;;;;;63.13;10.03;;;;;;;4.60;100.00;96861.31;5156311;27;20612;-65
2021/12/05 16:02:10;;;;;;;27.47;8.80;;;;;;;4.66;100.00;96852.38;5160741;27;20668;-65
2021/12/05 16:04:37;;;;;;;91.93;10.03;;;;;;;4.68;100.00;96856.38;5152520;27;20612;-65
2021/12/05 16:07:08;;;;;;;91.67;10.23;;;;;;;4.70;100.00;96856.94;5160792;27;20674;-65
2021/12/05 16:09:36;;;;;;;47.33;8.93;;;;;;;4.74;100.00;96862.50;5163915;27;20649;-65
2021/12/05 16:12:08;;;;;;;40.80;8.27;;;;;;;4.73;100.00;96855.63;5164372;27;20603;-65
2021/12/05 16:14:38;;;;;;;50.47;8.70;;;;;;;4.75;100.00;96864.09;5160761;27;20588;-65
2021/12/05 16:17:20;;;;;;;39.13;9.53;;;;;;;4.81;100.00;96873.69;5160581;27;20587;-66
2021/12/05 16:20:07;;;;;;;53.93;9.33;;;;;;;4.76;100.00;96871.00;5153641;27;20599;-65
2021/12/05 16:22:34;;;;;;;51.43;9.60;;;;;;;4.76;100.00;96871.00;5163844;27;20621;-66
2021/12/05 16:25:16;;;;;;;45.40;9.23;;;;;;;4.78;100.00;96874.19;5164244;27;20587;-65